sensor_id;sensor_type;location;lat;lon;timestamp;P1;durP1;ratioP1;P2;durP2;ratioP2
76021;SDS011;64718;52.124;6.226;2023-12-14T00:02:10;20.10;;;6.63;;
76021;SDS011;64718;52.124;6.226;2023-12-14T00:04:38;19.60;;;6.60;;
76021;SDS011;64718;52.124;6.226;2023-12-14T00:07:06;13.40;;;4.95;;
76021;SDS011;64718;52.124;6.226;2023-12-14T00:09:33;15.55;;;5.95;;
76021;SDS011;64718;52.124;6.226;2023-12-14T00:11:59;19.30;;;6.90;;
76021;SDS011;64718;52.124;6.226;2023-12-14T00:14:26;9.32;;;3.80;;
76021;SDS011;64718;52.124;6.226;2023-12-14T00:16:52;12.63;;;4.70;;
76021;SDS011;64718;52.124;6.226;2023-12-14T00:19:19;13.27;;;5.65;;
76021;SDS011;64718;52.124;6.226;2023-12-14T00:21:47;6.93;;;4.65;;
76021;SDS011;64718;52.124;6.226;2023-12-14T00:24:13;12.80;;;4.85;;
76021;SDS011;64718;52.124;6.226;2023-12-14T00:26:40;16.35;;;7.53;;
76021;SDS011;64718;52.124;6.226;2023-12-14T00:29:06;11.60;;;5.50;;
76021;SDS011;64718;52.124;6.226;2023-12-14T00:31:33;18.27;;;7.05;;
76021;SDS011;64718;52.124;6.226;2023-12-14T00:33:59;17.52;;;6.32;;
76021;SDS011;64718;52.124;6.226;2023-12-14T00:36:26;19.40;;;8.85;;
76021;SDS011;64718;52.124;6.226;2023-12-14T00:38:54;15.30;;;6.28;;
76021;SDS011;64718;52.124;6.226;2023-12-14T00:43:48;19.02;;;7.40;;
76021;SDS011;64718;52.124;6.226;2023-12-14T00:46:14;7.90;;;4.05;;
76021;SDS011;64718;52.124;6.226;2023-12-14T00:48:40;13.20;;;5.63;;
76021;SDS011;64718;52.124;6.226;2023-12-14T00:51:06;18.55;;;6.47;;
76021;SDS011;64718;52.124;6.226;2023-12-14T00:53:33;22.77;;;9.23;;
76021;SDS011;64718;52.124;6.226;2023-12-14T00:56:01;13.90;;;6.50;;
76021;SDS011;64718;52.124;6.226;2023-12-14T00:58:28;17.73;;;6.85;;
76021;SDS011;64718;52.124;6.226;2023-12-14T01:00:54;21.95;;;6.65;;
76021;SDS011;64718;52.124;6.226;2023-12-14T01:03:21;16.75;;;7.00;;
76021;SDS011;64718;52.124;6.226;2023-12-14T01:05:47;14.60;;;7.28;;
76021;SDS011;64718;52.124;6.226;2023-12-14T01:08:14;16.75;;;8.05;;
76021;SDS011;64718;52.124;6.226;2023-12-14T01:10:41;11.48;;;4.88;;
76021;SDS011;64718;52.124;6.226;2023-12-14T01:13:09;15.77;;;5.72;;
76021;SDS011;64718;52.124;6.226;2023-12-14T01:15:35;13.23;;;6.38;;
76021;SDS011;64718;52.124;6.226;2023-12-14T01:18:02;14.60;;;7.45;;
76021;SDS011;64718;52.124;6.226;2023-12-14T01:20:29;9.10;;;4.75;;
76021;SDS011;64718;52.124;6.226;2023-12-14T01:22:55;13.85;;;5.78;;
76021;SDS011;64718;52.124;6.226;2023-12-14T01:25:22;10.93;;;5.18;;
76021;SDS011;64718;52.124;6.226;2023-12-14T01:27:48;12.95;;;6.28;;
76021;SDS011;64718;52.124;6.226;2023-12-14T01:30:16;14.65;;;6.40;;
76021;SDS011;64718;52.124;6.226;2023-12-14T01:32:43;14.07;;;5.88;;
76021;SDS011;64718;52.124;6.226;2023-12-14T01:35:09;12.10;;;5.18;;
76021;SDS011;64718;52.124;6.226;2023-12-14T01:37:36;9.93;;;4.72;;
76021;SDS011;64718;52.124;6.226;2023-12-14T01:40:03;11.88;;;5.30;;
76021;SDS011;64718;52.124;6.226;2023-12-14T01:42:31;11.85;;;6.55;;
76021;SDS011;64718;52.124;6.226;2023-12-14T01:44:57;16.17;;;6.20;;
76021;SDS011;64718;52.124;6.226;2023-12-14T01:47:25;13.45;;;6.15;;
76021;SDS011;64718;52.124;6.226;2023-12-14T01:49:52;15.57;;;6.05;;
76021;SDS011;64718;52.124;6.226;2023-12-14T01:52:18;15.95;;;6.47;;
76021;SDS011;64718;52.124;6.226;2023-12-14T01:54:45;16.27;;;7.38;;
76021;SDS011;64718;52.124;6.226;2023-12-14T01:57:11;14.20;;;6.47;;
76021;SDS011;64718;52.124;6.226;2023-12-14T01:59:38;14.98;;;6.95;;
76021;SDS011;64718;52.124;6.226;2023-12-14T02:02:04;14.57;;;6.18;;
76021;SDS011;64718;52.124;6.226;2023-12-14T02:04:33;13.20;;;6.65;;
76021;SDS011;64718;52.124;6.226;2023-12-14T02:06:59;10.98;;;4.85;;
76021;SDS011;64718;52.124;6.226;2023-12-14T02:09:26;12.60;;;5.97;;
76021;SDS011;64718;52.124;6.226;2023-12-14T02:11:52;14.77;;;5.43;;
76021;SDS011;64718;52.124;6.226;2023-12-14T02:14:21;13.05;;;6.40;;
76021;SDS011;64718;52.124;6.226;2023-12-14T02:19:14;9.52;;;4.55;;
76021;SDS011;64718;52.124;6.226;2023-12-14T02:21:42;12.75;;;5.63;;
76021;SDS011;64718;52.124;6.226;2023-12-14T02:24:09;11.82;;;5.75;;
76021;SDS011;64718;52.124;6.226;2023-12-14T02:26:36;17.15;;;6.88;;
76021;SDS011;64718;52.124;6.226;2023-12-14T02:29:03;15.45;;;5.80;;
76021;SDS011;64718;52.124;6.226;2023-12-14T02:31:29;9.43;;;4.97;;
76021;SDS011;64718;52.124;6.226;2023-12-14T02:33:56;14.88;;;5.60;;
76021;SDS011;64718;52.124;6.226;2023-12-14T02:36:22;14.18;;;6.28;;
76021;SDS011;64718;52.124;6.226;2023-12-14T02:38:49;14.13;;;6.75;;
76021;SDS011;64718;52.124;6.226;2023-12-14T02:41:17;12.02;;;5.28;;
76021;SDS011;64718;52.124;6.226;2023-12-14T02:43:43;16.27;;;6.03;;
76021;SDS011;64718;52.124;6.226;2023-12-14T02:46:10;12.32;;;5.97;;
76021;SDS011;64718;52.124;6.226;2023-12-14T02:48:40;14.77;;;6.15;;
76021;SDS011;64718;52.124;6.226;2023-12-14T02:51:07;10.75;;;4.82;;
76021;SDS011;64718;52.124;6.226;2023-12-14T02:53:37;15.00;;;7.28;;
76021;SDS011;64718;52.124;6.226;2023-12-14T02:56:04;16.70;;;6.60;;
76021;SDS011;64718;52.124;6.226;2023-12-14T02:58:32;13.90;;;6.68;;
76021;SDS011;64718;52.124;6.226;2023-12-14T03:00:59;12.23;;;7.00;;
76021;SDS011;64718;52.124;6.226;2023-12-14T03:03:25;15.15;;;6.50;;
76021;SDS011;64718;52.124;6.226;2023-12-14T03:05:54;15.07;;;6.35;;
76021;SDS011;64718;52.124;6.226;2023-12-14T03:08:20;14.43;;;5.40;;
76021;SDS011;64718;52.124;6.226;2023-12-14T03:10:47;12.95;;;5.75;;
76021;SDS011;64718;52.124;6.226;2023-12-14T03:13:13;15.43;;;6.78;;
76021;SDS011;64718;52.124;6.226;2023-12-14T03:15:42;13.95;;;6.20;;
76021;SDS011;64718;52.124;6.226;2023-12-14T03:18:09;14.00;;;6.18;;
76021;SDS011;64718;52.124;6.226;2023-12-14T03:20:35;9.35;;;4.60;;
76021;SDS011;64718;52.124;6.226;2023-12-14T03:23:02;11.07;;;4.82;;
76021;SDS011;64718;52.124;6.226;2023-12-14T03:25:28;13.38;;;6.10;;
76021;SDS011;64718;52.124;6.226;2023-12-14T03:27:54;10.82;;;5.07;;
76021;SDS011;64718;52.124;6.226;2023-12-14T03:30:20;10.23;;;4.78;;
76021;SDS011;64718;52.124;6.226;2023-12-14T03:32:48;9.55;;;3.97;;
76021;SDS011;64718;52.124;6.226;2023-12-14T03:35:15;13.55;;;5.35;;
76021;SDS011;64718;52.124;6.226;2023-12-14T03:37:41;12.65;;;4.53;;
76021;SDS011;64718;52.124;6.226;2023-12-14T03:40:08;12.65;;;5.60;;
76021;SDS011;64718;52.124;6.226;2023-12-14T03:42:35;10.38;;;4.97;;
76021;SDS011;64718;52.124;6.226;2023-12-14T03:45:02;10.15;;;4.85;;
76021;SDS011;64718;52.124;6.226;2023-12-14T03:47:29;14.32;;;6.35;;
76021;SDS011;64718;52.124;6.226;2023-12-14T03:49:57;10.55;;;5.28;;
76021;SDS011;64718;52.124;6.226;2023-12-14T03:52:23;15.95;;;6.65;;
76021;SDS011;64718;52.124;6.226;2023-12-14T03:54:50;13.63;;;6.30;;
76021;SDS011;64718;52.124;6.226;2023-12-14T03:57:17;8.88;;;3.83;;
76021;SDS011;64718;52.124;6.226;2023-12-14T03:59:43;10.27;;;4.28;;
76021;SDS011;64718;52.124;6.226;2023-12-14T04:02:10;11.38;;;5.60;;
76021;SDS011;64718;52.124;6.226;2023-12-14T04:04:37;13.48;;;6.03;;
76021;SDS011;64718;52.124;6.226;2023-12-14T04:07:06;12.77;;;5.63;;
76021;SDS011;64718;52.124;6.226;2023-12-14T04:09:33;11.88;;;5.32;;
76021;SDS011;64718;52.124;6.226;2023-12-14T04:11:59;13.68;;;5.13;;
76021;SDS011;64718;52.124;6.226;2023-12-14T04:14:26;10.80;;;5.28;;
76021;SDS011;64718;52.124;6.226;2023-12-14T04:16:52;12.18;;;5.00;;
76021;SDS011;64718;52.124;6.226;2023-12-14T04:19:19;9.93;;;4.88;;
76021;SDS011;64718;52.124;6.226;2023-12-14T04:21:47;13.93;;;5.97;;
76021;SDS011;64718;52.124;6.226;2023-12-14T04:24:14;12.85;;;6.03;;
76021;SDS011;64718;52.124;6.226;2023-12-14T04:26:41;13.32;;;6.15;;
76021;SDS011;64718;52.124;6.226;2023-12-14T04:29:07;10.55;;;5.30;;
76021;SDS011;64718;52.124;6.226;2023-12-14T04:31:34;10.57;;;5.63;;
76021;SDS011;64718;52.124;6.226;2023-12-14T04:34:01;14.57;;;5.95;;
76021;SDS011;64718;52.124;6.226;2023-12-14T04:36:27;12.95;;;5.03;;
76021;SDS011;64718;52.124;6.226;2023-12-14T04:38:54;16.25;;;6.53;;
76021;SDS011;64718;52.124;6.226;2023-12-14T04:41:22;14.40;;;6.47;;
76021;SDS011;64718;52.124;6.226;2023-12-14T04:43:48;14.35;;;5.90;;
76021;SDS011;64718;52.124;6.226;2023-12-14T04:46:15;10.98;;;5.95;;
76021;SDS011;64718;52.124;6.226;2023-12-14T04:48:41;13.38;;;6.47;;
76021;SDS011;64718;52.124;6.226;2023-12-14T04:51:10;12.52;;;5.57;;
76021;SDS011;64718;52.124;6.226;2023-12-14T04:53:37;13.90;;;5.40;;
76021;SDS011;64718;52.124;6.226;2023-12-14T04:56:04;10.95;;;4.55;;
76021;SDS011;64718;52.124;6.226;2023-12-14T04:58:32;10.02;;;4.95;;
76021;SDS011;64718;52.124;6.226;2023-12-14T05:00:59;10.65;;;4.55;;
76021;SDS011;64718;52.124;6.226;2023-12-14T05:03:25;9.30;;;4.25;;
76021;SDS011;64718;52.124;6.226;2023-12-14T05:05:52;12.55;;;5.32;;
76021;SDS011;64718;52.124;6.226;2023-12-14T05:08:18;11.98;;;4.95;;
76021;SDS011;64718;52.124;6.226;2023-12-14T05:10:45;13.52;;;5.63;;
76021;SDS011;64718;52.124;6.226;2023-12-14T05:13:11;12.30;;;5.35;;
76021;SDS011;64718;52.124;6.226;2023-12-14T05:15:39;10.85;;;4.85;;
76021;SDS011;64718;52.124;6.226;2023-12-14T05:18:06;11.88;;;5.70;;
76021;SDS011;64718;52.124;6.226;2023-12-14T05:20:33;12.90;;;5.00;;
76021;SDS011;64718;52.124;6.226;2023-12-14T05:23:00;12.50;;;5.57;;
76021;SDS011;64718;52.124;6.226;2023-12-14T05:25:26;9.20;;;4.07;;
76021;SDS011;64718;52.124;6.226;2023-12-14T05:27:53;11.15;;;5.13;;
76021;SDS011;64718;52.124;6.226;2023-12-14T05:30:20;11.75;;;5.75;;
76021;SDS011;64718;52.124;6.226;2023-12-14T05:32:47;12.52;;;4.88;;
76021;SDS011;64718;52.124;6.226;2023-12-14T05:35:14;12.65;;;5.82;;
76021;SDS011;64718;52.124;6.226;2023-12-14T05:37:41;14.25;;;5.60;;
76021;SDS011;64718;52.124;6.226;2023-12-14T05:40:07;11.27;;;4.78;;
76021;SDS011;64718;52.124;6.226;2023-12-14T05:42:35;11.07;;;4.45;;
76021;SDS011;64718;52.124;6.226;2023-12-14T05:45:02;11.85;;;5.03;;
76021;SDS011;64718;52.124;6.226;2023-12-14T05:47:29;13.38;;;4.72;;
76021;SDS011;64718;52.124;6.226;2023-12-14T05:49:59;13.18;;;5.20;;
76021;SDS011;64718;52.124;6.226;2023-12-14T05:52:25;11.95;;;5.03;;
76021;SDS011;64718;52.124;6.226;2023-12-14T05:54:52;11.60;;;4.30;;
76021;SDS011;64718;52.124;6.226;2023-12-14T05:57:18;12.75;;;4.80;;
76021;SDS011;64718;52.124;6.226;2023-12-14T05:59:45;11.18;;;4.68;;
76021;SDS011;64718;52.124;6.226;2023-12-14T06:02:11;11.82;;;4.85;;
76021;SDS011;64718;52.124;6.226;2023-12-14T06:04:38;11.65;;;5.68;;
76021;SDS011;64718;52.124;6.226;2023-12-14T06:07:06;12.63;;;6.18;;
76021;SDS011;64718;52.124;6.226;2023-12-14T06:09:32;9.35;;;4.57;;
76021;SDS011;64718;52.124;6.226;2023-12-14T06:12:00;11.30;;;4.80;;
76021;SDS011;64718;52.124;6.226;2023-12-14T06:14:27;11.07;;;4.22;;
76021;SDS011;64718;52.124;6.226;2023-12-14T06:16:54;12.82;;;4.57;;
76021;SDS011;64718;52.124;6.226;2023-12-14T06:19:20;11.73;;;4.38;;
76021;SDS011;64718;52.124;6.226;2023-12-14T06:21:47;13.35;;;5.28;;
76021;SDS011;64718;52.124;6.226;2023-12-14T06:24:16;13.55;;;5.32;;
76021;SDS011;64718;52.124;6.226;2023-12-14T06:26:42;10.45;;;5.15;;
76021;SDS011;64718;52.124;6.226;2023-12-14T06:29:09;11.20;;;5.45;;
76021;SDS011;64718;52.124;6.226;2023-12-14T06:31:35;13.80;;;4.97;;
76021;SDS011;64718;52.124;6.226;2023-12-14T06:34:02;13.20;;;5.85;;
76021;SDS011;64718;52.124;6.226;2023-12-14T06:36:29;10.73;;;4.78;;
76021;SDS011;64718;52.124;6.226;2023-12-14T06:38:56;12.50;;;5.53;;
76021;SDS011;64718;52.124;6.226;2023-12-14T06:41:24;15.80;;;5.55;;
76021;SDS011;64718;52.124;6.226;2023-12-14T06:43:51;11.35;;;3.70;;
76021;SDS011;64718;52.124;6.226;2023-12-14T06:46:19;13.80;;;5.10;;
76021;SDS011;64718;52.124;6.226;2023-12-14T06:48:46;11.50;;;5.55;;
76021;SDS011;64718;52.124;6.226;2023-12-14T06:51:13;13.15;;;5.75;;
76021;SDS011;64718;52.124;6.226;2023-12-14T06:53:40;16.15;;;5.20;;
76021;SDS011;64718;52.124;6.226;2023-12-14T06:56:08;15.05;;;6.30;;
76021;SDS011;64718;52.124;6.226;2023-12-14T06:58:37;13.05;;;6.05;;
76021;SDS011;64718;52.124;6.226;2023-12-14T07:01:05;10.90;;;5.07;;
76021;SDS011;64718;52.124;6.226;2023-12-14T07:03:32;13.50;;;6.20;;
76021;SDS011;64718;52.124;6.226;2023-12-14T07:05:58;11.10;;;5.32;;
76021;SDS011;64718;52.124;6.226;2023-12-14T07:08:25;15.30;;;4.95;;
76021;SDS011;64718;52.124;6.226;2023-12-14T07:10:51;14.40;;;6.25;;
76021;SDS011;64718;52.124;6.226;2023-12-14T07:13:18;12.45;;;5.68;;
76021;SDS011;64718;52.124;6.226;2023-12-14T07:15:47;12.70;;;5.13;;
76021;SDS011;64718;52.124;6.226;2023-12-14T07:18:13;12.73;;;4.72;;
76021;SDS011;64718;52.124;6.226;2023-12-14T07:20:40;12.63;;;6.03;;
76021;SDS011;64718;52.124;6.226;2023-12-14T07:23:07;15.85;;;5.78;;
76021;SDS011;64718;52.124;6.226;2023-12-14T07:25:33;13.68;;;5.50;;
76021;SDS011;64718;52.124;6.226;2023-12-14T07:28:00;14.02;;;5.60;;
76021;SDS011;64718;52.124;6.226;2023-12-14T07:30:26;11.27;;;4.88;;
76021;SDS011;64718;52.124;6.226;2023-12-14T07:32:54;13.38;;;5.55;;
76021;SDS011;64718;52.124;6.226;2023-12-14T07:35:21;11.77;;;4.53;;
76021;SDS011;64718;52.124;6.226;2023-12-14T07:37:48;10.82;;;5.30;;
76021;SDS011;64718;52.124;6.226;2023-12-14T07:40:15;11.75;;;4.28;;
76021;SDS011;64718;52.124;6.226;2023-12-14T07:42:41;13.43;;;5.70;;
76021;SDS011;64718;52.124;6.226;2023-12-14T07:45:08;12.00;;;5.03;;
76021;SDS011;64718;52.124;6.226;2023-12-14T07:47:35;13.65;;;5.72;;
76021;SDS011;64718;52.124;6.226;2023-12-14T07:50:04;11.00;;;4.88;;
76021;SDS011;64718;52.124;6.226;2023-12-14T07:52:31;9.43;;;5.13;;
76021;SDS011;64718;52.124;6.226;2023-12-14T07:54:57;8.85;;;3.97;;
76021;SDS011;64718;52.124;6.226;2023-12-14T07:57:24;9.05;;;4.13;;
76021;SDS011;64718;52.124;6.226;2023-12-14T07:59:50;10.82;;;4.90;;
76021;SDS011;64718;52.124;6.226;2023-12-14T08:02:17;12.18;;;5.35;;
76021;SDS011;64718;52.124;6.226;2023-12-14T08:04:43;7.88;;;3.25;;
76021;SDS011;64718;52.124;6.226;2023-12-14T08:07:11;10.05;;;3.85;;
76021;SDS011;64718;52.124;6.226;2023-12-14T08:09:38;9.32;;;5.10;;
76021;SDS011;64718;52.124;6.226;2023-12-14T08:12:05;12.75;;;4.78;;
76021;SDS011;64718;52.124;6.226;2023-12-14T08:14:32;11.48;;;5.07;;
76021;SDS011;64718;52.124;6.226;2023-12-14T08:16:59;11.93;;;4.50;;
76021;SDS011;64718;52.124;6.226;2023-12-14T08:19:25;10.25;;;4.78;;
76021;SDS011;64718;52.124;6.226;2023-12-14T08:21:52;12.52;;;4.85;;
76021;SDS011;64718;52.124;6.226;2023-12-14T08:24:20;12.00;;;4.40;;
76021;SDS011;64718;52.124;6.226;2023-12-14T08:26:47;10.13;;;4.28;;
76021;SDS011;64718;52.124;6.226;2023-12-14T08:29:13;10.73;;;4.78;;
76021;SDS011;64718;52.124;6.226;2023-12-14T08:31:40;8.32;;;4.22;;
76021;SDS011;64718;52.124;6.226;2023-12-14T08:34:06;9.18;;;4.55;;
76021;SDS011;64718;52.124;6.226;2023-12-14T08:36:33;11.60;;;5.00;;
76021;SDS011;64718;52.124;6.226;2023-12-14T08:38:58;9.05;;;4.72;;
76021;SDS011;64718;52.124;6.226;2023-12-14T08:41:26;10.10;;;3.80;;
76021;SDS011;64718;52.124;6.226;2023-12-14T08:43:53;11.73;;;4.32;;
76021;SDS011;64718;52.124;6.226;2023-12-14T08:46:20;8.73;;;4.32;;
76021;SDS011;64718;52.124;6.226;2023-12-14T08:48:47;11.77;;;4.60;;
76021;SDS011;64718;52.124;6.226;2023-12-14T08:51:15;9.73;;;4.00;;
76021;SDS011;64718;52.124;6.226;2023-12-14T08:53:42;9.65;;;4.18;;
76021;SDS011;64718;52.124;6.226;2023-12-14T08:56:09;11.13;;;4.40;;
76021;SDS011;64718;52.124;6.226;2023-12-14T08:58:37;9.32;;;4.60;;
76021;SDS011;64718;52.124;6.226;2023-12-14T09:01:03;11.52;;;4.55;;
76021;SDS011;64718;52.124;6.226;2023-12-14T09:03:30;11.32;;;4.53;;
76021;SDS011;64718;52.124;6.226;2023-12-14T09:05:57;9.68;;;4.50;;
76021;SDS011;64718;52.124;6.226;2023-12-14T09:08:24;6.68;;;3.25;;
76021;SDS011;64718;52.124;6.226;2023-12-14T09:10:50;10.10;;;4.55;;
76021;SDS011;64718;52.124;6.226;2023-12-14T09:13:17;11.10;;;4.22;;
76021;SDS011;64718;52.124;6.226;2023-12-14T09:15:45;8.90;;;4.57;;
76021;SDS011;64718;52.124;6.226;2023-12-14T09:18:12;10.00;;;3.95;;
76021;SDS011;64718;52.124;6.226;2023-12-14T09:20:38;10.27;;;3.97;;
76021;SDS011;64718;52.124;6.226;2023-12-14T09:23:07;9.23;;;5.13;;
76021;SDS011;64718;52.124;6.226;2023-12-14T09:25:34;9.40;;;4.25;;
76021;SDS011;64718;52.124;6.226;2023-12-14T09:28:00;11.73;;;4.55;;
76021;SDS011;64718;52.124;6.226;2023-12-14T09:30:27;9.98;;;4.50;;
76021;SDS011;64718;52.124;6.226;2023-12-14T09:32:55;7.85;;;3.83;;
76021;SDS011;64718;52.124;6.226;2023-12-14T09:35:21;11.63;;;4.55;;
76021;SDS011;64718;52.124;6.226;2023-12-14T09:37:48;8.93;;;4.28;;
76021;SDS011;64718;52.124;6.226;2023-12-14T09:40:15;8.90;;;3.42;;
76021;SDS011;64718;52.124;6.226;2023-12-14T09:42:43;9.13;;;4.22;;
76021;SDS011;64718;52.124;6.226;2023-12-14T09:45:11;10.02;;;4.22;;
76021;SDS011;64718;52.124;6.226;2023-12-14T09:47:38;12.18;;;4.18;;
76021;SDS011;64718;52.124;6.226;2023-12-14T09:50:07;8.52;;;4.05;;
76021;SDS011;64718;52.124;6.226;2023-12-14T09:55:00;10.00;;;4.78;;
76021;SDS011;64718;52.124;6.226;2023-12-14T09:57:29;13.40;;;3.70;;
76021;SDS011;64718;52.124;6.226;2023-12-14T09:59:56;10.63;;;4.18;;
76021;SDS011;64718;52.124;6.226;2023-12-14T10:02:24;9.18;;;3.75;;
76021;SDS011;64718;52.124;6.226;2023-12-14T10:04:52;10.07;;;4.60;;
76021;SDS011;64718;52.124;6.226;2023-12-14T10:07:20;10.95;;;5.10;;
76021;SDS011;64718;52.124;6.226;2023-12-14T10:09:47;9.38;;;4.25;;
76021;SDS011;64718;52.124;6.226;2023-12-14T10:12:15;11.73;;;5.82;;
76021;SDS011;64718;52.124;6.226;2023-12-14T10:14:42;10.43;;;4.78;;
76021;SDS011;64718;52.124;6.226;2023-12-14T10:17:13;8.40;;;4.00;;
76021;SDS011;64718;52.124;6.226;2023-12-14T10:19:42;10.15;;;4.22;;
76021;SDS011;64718;52.124;6.226;2023-12-14T10:22:09;10.52;;;3.90;;
76021;SDS011;64718;52.124;6.226;2023-12-14T10:24:37;10.88;;;4.75;;
76021;SDS011;64718;52.124;6.226;2023-12-14T10:27:04;9.57;;;4.38;;
76021;SDS011;64718;52.124;6.226;2023-12-14T10:29:33;10.05;;;3.97;;
76021;SDS011;64718;52.124;6.226;2023-12-14T10:32:00;10.27;;;4.40;;
76021;SDS011;64718;52.124;6.226;2023-12-14T10:34:29;9.10;;;3.55;;
76021;SDS011;64718;52.124;6.226;2023-12-14T10:36:55;10.48;;;4.28;;
76021;SDS011;64718;52.124;6.226;2023-12-14T10:39:22;8.52;;;3.70;;
76021;SDS011;64718;52.124;6.226;2023-12-14T10:41:50;8.20;;;4.55;;
76021;SDS011;64718;52.124;6.226;2023-12-14T10:44:20;10.30;;;4.03;;
76021;SDS011;64718;52.124;6.226;2023-12-14T10:46:47;10.77;;;4.38;;
76021;SDS011;64718;52.124;6.226;2023-12-14T10:49:14;8.05;;;3.63;;
76021;SDS011;64718;52.124;6.226;2023-12-14T10:51:41;11.23;;;4.45;;
76021;SDS011;64718;52.124;6.226;2023-12-14T10:54:08;8.52;;;4.18;;
76021;SDS011;64718;52.124;6.226;2023-12-14T10:56:35;8.60;;;4.15;;
76021;SDS011;64718;52.124;6.226;2023-12-14T10:59:03;9.00;;;3.60;;
76021;SDS011;64718;52.124;6.226;2023-12-14T11:01:30;11.20;;;3.17;;
76021;SDS011;64718;52.124;6.226;2023-12-14T11:04:00;9.82;;;4.72;;
76021;SDS011;64718;52.124;6.226;2023-12-14T11:06:30;12.32;;;4.65;;
76021;SDS011;64718;52.124;6.226;2023-12-14T11:08:59;8.20;;;4.28;;
76021;SDS011;64718;52.124;6.226;2023-12-14T11:11:31;10.90;;;4.47;;
76021;SDS011;64718;52.124;6.226;2023-12-14T11:14:08;10.95;;;5.18;;
76021;SDS011;64718;52.124;6.226;2023-12-14T11:16:38;9.13;;;4.05;;
76021;SDS011;64718;52.124;6.226;2023-12-14T11:19:24;8.57;;;3.72;;
76021;SDS011;64718;52.124;6.226;2023-12-14T11:22:11;9.80;;;3.65;;
76021;SDS011;64718;52.124;6.226;2023-12-14T11:24:50;8.10;;;3.50;;
76021;SDS011;64718;52.124;6.226;2023-12-14T11:27:19;9.40;;;3.60;;
76021;SDS011;64718;52.124;6.226;2023-12-14T11:29:49;9.30;;;3.90;;
76021;SDS011;64718;52.124;6.226;2023-12-14T11:32:16;9.68;;;4.70;;
76021;SDS011;64718;52.124;6.226;2023-12-14T11:34:43;10.80;;;4.63;;
76021;SDS011;64718;52.124;6.226;2023-12-14T11:37:12;10.88;;;4.07;;
76021;SDS011;64718;52.124;6.226;2023-12-14T11:39:39;9.80;;;5.57;;
76021;SDS011;64718;52.124;6.226;2023-12-14T11:42:05;10.27;;;4.03;;
76021;SDS011;64718;52.124;6.226;2023-12-14T11:44:34;8.02;;;4.15;;
76021;SDS011;64718;52.124;6.226;2023-12-14T11:47:03;8.55;;;3.90;;
76021;SDS011;64718;52.124;6.226;2023-12-14T11:49:29;7.35;;;3.63;;
76021;SDS011;64718;52.124;6.226;2023-12-14T11:51:57;11.20;;;4.38;;
76021;SDS011;64718;52.124;6.226;2023-12-14T11:54:23;10.00;;;4.72;;
76021;SDS011;64718;52.124;6.226;2023-12-14T11:56:50;10.63;;;4.00;;
76021;SDS011;64718;52.124;6.226;2023-12-14T11:59:17;10.13;;;3.72;;
76021;SDS011;64718;52.124;6.226;2023-12-14T12:01:55;9.68;;;3.65;;
76021;SDS011;64718;52.124;6.226;2023-12-14T12:04:24;8.77;;;3.97;;
76021;SDS011;64718;52.124;6.226;2023-12-14T12:06:58;7.38;;;3.65;;
76021;SDS011;64718;52.124;6.226;2023-12-14T12:09:36;9.77;;;3.97;;
76021;SDS011;64718;52.124;6.226;2023-12-14T12:12:07;8.27;;;3.58;;
76021;SDS011;64718;52.124;6.226;2023-12-14T12:14:34;8.95;;;3.63;;
76021;SDS011;64718;52.124;6.226;2023-12-14T12:17:01;8.98;;;3.55;;
76021;SDS011;64718;52.124;6.226;2023-12-14T12:19:30;8.95;;;4.15;;
76021;SDS011;64718;52.124;6.226;2023-12-14T12:21:57;7.53;;;3.58;;
76021;SDS011;64718;52.124;6.226;2023-12-14T12:24:24;10.30;;;4.38;;
76021;SDS011;64718;52.124;6.226;2023-12-14T12:26:51;9.50;;;3.40;;
76021;SDS011;64718;52.124;6.226;2023-12-14T12:29:17;10.90;;;3.75;;
76021;SDS011;64718;52.124;6.226;2023-12-14T12:31:44;9.63;;;3.80;;
76021;SDS011;64718;52.124;6.226;2023-12-14T12:34:11;9.25;;;4.45;;
76021;SDS011;64718;52.124;6.226;2023-12-14T12:36:39;7.35;;;3.50;;
76021;SDS011;64718;52.124;6.226;2023-12-14T12:39:05;10.40;;;5.50;;
76021;SDS011;64718;52.124;6.226;2023-12-14T12:41:32;8.77;;;3.33;;
76021;SDS011;64718;52.124;6.226;2023-12-14T12:43:59;8.52;;;3.50;;
76021;SDS011;64718;52.124;6.226;2023-12-14T12:46:30;9.77;;;4.10;;
76021;SDS011;64718;52.124;6.226;2023-12-14T12:48:57;7.63;;;4.30;;
76021;SDS011;64718;52.124;6.226;2023-12-14T12:51:24;8.70;;;4.28;;
76021;SDS011;64718;52.124;6.226;2023-12-14T12:53:53;8.23;;;4.15;;
76021;SDS011;64718;52.124;6.226;2023-12-14T12:56:20;8.23;;;3.97;;
76021;SDS011;64718;52.124;6.226;2023-12-14T12:58:46;6.55;;;3.75;;
76021;SDS011;64718;52.124;6.226;2023-12-14T13:01:14;8.13;;;4.07;;
76021;SDS011;64718;52.124;6.226;2023-12-14T13:03:41;10.32;;;4.07;;
76021;SDS011;64718;52.124;6.226;2023-12-14T13:06:08;7.85;;;3.45;;
76021;SDS011;64718;52.124;6.226;2023-12-14T13:08:34;12.93;;;3.78;;
76021;SDS011;64718;52.124;6.226;2023-12-14T13:11:02;8.27;;;3.35;;
76021;SDS011;64718;52.124;6.226;2023-12-14T13:13:29;9.18;;;3.95;;
76021;SDS011;64718;52.124;6.226;2023-12-14T13:15:56;9.60;;;4.60;;
76021;SDS011;64718;52.124;6.226;2023-12-14T13:18:23;7.40;;;3.30;;
76021;SDS011;64718;52.124;6.226;2023-12-14T13:20:49;7.28;;;3.85;;
76021;SDS011;64718;52.124;6.226;2023-12-14T13:23:16;6.93;;;3.15;;
76021;SDS011;64718;52.124;6.226;2023-12-14T13:25:42;6.93;;;3.03;;
76021;SDS011;64718;52.124;6.226;2023-12-14T13:28:11;7.72;;;3.25;;
76021;SDS011;64718;52.124;6.226;2023-12-14T13:30:37;8.55;;;3.20;;
76021;SDS011;64718;52.124;6.226;2023-12-14T13:33:05;5.90;;;2.65;;
76021;SDS011;64718;52.124;6.226;2023-12-14T13:35:34;6.30;;;3.25;;
76021;SDS011;64718;52.124;6.226;2023-12-14T13:38:00;6.88;;;3.30;;
76021;SDS011;64718;52.124;6.226;2023-12-14T13:40:27;7.82;;;2.70;;
76021;SDS011;64718;52.124;6.226;2023-12-14T13:42:54;9.00;;;4.50;;
76021;SDS011;64718;52.124;6.226;2023-12-14T13:45:25;6.15;;;3.10;;
76021;SDS011;64718;52.124;6.226;2023-12-14T13:47:54;7.10;;;3.13;;
76021;SDS011;64718;52.124;6.226;2023-12-14T13:50:21;9.23;;;3.25;;
76021;SDS011;64718;52.124;6.226;2023-12-14T13:52:48;6.82;;;4.15;;
76021;SDS011;64718;52.124;6.226;2023-12-14T13:55:15;7.13;;;3.47;;
76021;SDS011;64718;52.124;6.226;2023-12-14T13:57:41;8.50;;;3.70;;
76021;SDS011;64718;52.124;6.226;2023-12-14T14:00:08;8.00;;;3.50;;
76021;SDS011;64718;52.124;6.226;2023-12-14T14:02:38;8.63;;;3.50;;
76021;SDS011;64718;52.124;6.226;2023-12-14T14:05:04;9.13;;;4.22;;
76021;SDS011;64718;52.124;6.226;2023-12-14T14:07:31;9.35;;;4.57;;
76021;SDS011;64718;52.124;6.226;2023-12-14T14:09:58;9.68;;;4.32;;
76021;SDS011;64718;52.124;6.226;2023-12-14T14:12:24;8.77;;;3.80;;
76021;SDS011;64718;52.124;6.226;2023-12-14T14:14:51;7.55;;;3.88;;
76021;SDS011;64718;52.124;6.226;2023-12-14T14:17:17;9.60;;;4.78;;
76021;SDS011;64718;52.124;6.226;2023-12-14T14:19:45;10.10;;;4.85;;
76021;SDS011;64718;52.124;6.226;2023-12-14T14:22:12;9.93;;;4.53;;
76021;SDS011;64718;52.124;6.226;2023-12-14T14:24:38;9.80;;;4.78;;
76021;SDS011;64718;52.124;6.226;2023-12-14T14:27:05;9.95;;;4.63;;
76021;SDS011;64718;52.124;6.226;2023-12-14T14:29:31;11.38;;;4.43;;
76021;SDS011;64718;52.124;6.226;2023-12-14T14:31:58;11.80;;;4.75;;
76021;SDS011;64718;52.124;6.226;2023-12-14T14:34:24;10.60;;;3.92;;
76021;SDS011;64718;52.124;6.226;2023-12-14T14:36:52;12.88;;;4.75;;
76021;SDS011;64718;52.124;6.226;2023-12-14T14:39:19;10.40;;;4.60;;
76021;SDS011;64718;52.124;6.226;2023-12-14T14:41:46;8.13;;;4.20;;
76021;SDS011;64718;52.124;6.226;2023-12-14T14:44:12;11.88;;;5.15;;
76021;SDS011;64718;52.124;6.226;2023-12-14T14:46:39;10.68;;;5.32;;